createdAt,value
2017-12-11T00:00:49.964Z,5.43
2017-12-11T00:03:17.465Z,5.26
2017-12-11T00:05:44.979Z,5.20
2017-12-11T00:08:12.476Z,5.15
2017-12-11T00:10:39.964Z,5.09
2017-12-11T00:13:07.467Z,4.97
2017-12-11T00:15:34.949Z,5.10
2017-12-11T00:18:04.909Z,4.97
2017-12-11T00:20:32.403Z,5.09
2017-12-11T00:22:59.902Z,5.10
2017-12-11T00:25:27.408Z,5.11
2017-12-11T00:27:54.928Z,5.09
2017-12-11T00:30:22.408Z,5.09
2017-12-11T00:32:49.906Z,5.08
2017-12-11T00:35:17.407Z,4.99
2017-12-11T00:37:44.924Z,5.07
2017-12-11T00:40:12.419Z,4.91
2017-12-11T00:42:39.942Z,4.96
2017-12-11T00:45:07.702Z,5.00
2017-12-11T00:47:35.438Z,4.86
2017-12-11T00:50:02.937Z,4.88
2017-12-11T00:52:30.412Z,4.97
2017-12-11T00:54:57.909Z,4.88
2017-12-11T00:57:25.410Z,4.92
2017-12-11T00:59:52.891Z,4.99
2017-12-11T01:02:20.381Z,4.90
2017-12-11T01:04:47.863Z,4.92
2017-12-11T01:07:15.359Z,4.87
2017-12-11T01:09:42.855Z,4.79
2017-12-11T01:12:10.356Z,4.85
2017-12-11T01:14:37.833Z,4.88
2017-12-11T01:17:05.321Z,4.77
2017-12-11T01:19:32.824Z,4.71
2017-12-11T01:22:00.312Z,4.72
2017-12-11T01:24:27.925Z,4.74
2017-12-11T01:26:55.502Z,4.77
2017-12-11T01:29:22.992Z,4.74
2017-12-11T01:31:50.616Z,4.78
2017-12-11T01:34:19.021Z,4.75
2017-12-11T01:36:46.522Z,4.69
2017-12-11T01:39:13.996Z,4.74
2017-12-11T01:41:41.518Z,4.76
2017-12-11T01:44:09.043Z,4.67
2017-12-11T01:46:36.521Z,4.69
2017-12-11T01:49:04.043Z,4.64
2017-12-11T01:51:31.534Z,4.56
2017-12-11T01:53:59.006Z,4.60
2017-12-11T01:56:26.480Z,4.50
2017-12-11T01:58:53.954Z,4.48
2017-12-11T02:01:21.435Z,4.51
2017-12-11T02:03:48.921Z,4.42
2017-12-11T02:06:16.400Z,4.36
2017-12-11T02:08:43.901Z,4.35
2017-12-11T02:11:11.386Z,4.30
2017-12-11T02:13:38.874Z,4.25
2017-12-11T02:16:06.428Z,4.26
2017-12-11T02:18:33.917Z,4.25
2017-12-11T02:21:01.422Z,4.23
2017-12-11T02:23:28.912Z,4.18
2017-12-11T02:25:56.381Z,4.17
2017-12-11T02:28:23.878Z,4.12
2017-12-11T02:30:51.360Z,4.14
2017-12-11T02:33:18.858Z,4.00
2017-12-11T02:35:46.343Z,3.99
2017-12-11T02:38:13.821Z,3.84
2017-12-11T02:40:41.336Z,3.80
2017-12-11T02:43:08.808Z,3.77
2017-12-11T02:45:36.301Z,3.60
2017-12-11T02:48:03.774Z,3.57
2017-12-11T02:50:31.264Z,3.54
2017-12-11T02:52:58.733Z,3.53
2017-12-11T02:55:26.216Z,3.44
2017-12-11T02:57:53.719Z,3.41
2017-12-11T03:00:21.232Z,3.38
2017-12-11T03:02:48.717Z,3.33
2017-12-11T03:05:16.296Z,3.33
2017-12-11T03:07:43.774Z,3.26
2017-12-11T03:10:11.265Z,3.23
2017-12-11T03:12:38.737Z,3.16
2017-12-11T03:15:06.250Z,3.16
2017-12-11T03:17:33.731Z,3.13
2017-12-11T03:20:01.213Z,3.13
2017-12-11T03:22:28.714Z,3.05
2017-12-11T03:24:56.222Z,3.04
2017-12-11T03:27:23.712Z,2.95
2017-12-11T03:29:51.294Z,2.97
2017-12-11T03:32:18.792Z,2.93
2017-12-11T03:34:46.287Z,2.89
2017-12-11T03:37:13.827Z,2.84
2017-12-11T03:39:41.366Z,2.78
2017-12-11T03:42:08.898Z,2.80
2017-12-11T03:44:36.388Z,2.78
2017-12-11T03:47:03.936Z,2.80
2017-12-11T03:49:31.429Z,2.76
2017-12-11T03:51:58.941Z,2.74
2017-12-11T03:54:26.420Z,2.74
2017-12-11T03:56:53.906Z,2.76
2017-12-11T03:59:21.396Z,2.68
2017-12-11T04:01:48.888Z,2.74
2017-12-11T04:04:16.399Z,2.72
2017-12-11T04:06:43.913Z,2.73
2017-12-11T04:09:11.409Z,2.70
2017-12-11T04:11:39.121Z,2.67
2017-12-11T04:14:06.600Z,2.70
2017-12-11T04:16:34.094Z,2.71
2017-12-11T04:19:01.607Z,2.56
2017-12-11T04:21:29.102Z,2.52
2017-12-11T04:23:56.612Z,2.42
2017-12-11T04:26:24.111Z,2.33
2017-12-11T04:28:51.616Z,2.31
2017-12-11T04:31:19.119Z,2.25
2017-12-11T04:33:46.664Z,2.15
2017-12-11T04:36:14.191Z,2.19
2017-12-11T04:38:41.690Z,2.21
2017-12-11T04:41:09.207Z,2.17
2017-12-11T04:43:36.713Z,2.21
2017-12-11T04:46:04.205Z,2.19
2017-12-11T04:48:31.693Z,2.05
2017-12-11T04:50:59.187Z,2.09
2017-12-11T04:53:26.705Z,2.02
2017-12-11T04:55:54.208Z,2.07
2017-12-11T04:58:21.743Z,1.99
2017-12-11T05:00:49.284Z,2.00
2017-12-11T05:03:16.841Z,1.97
2017-12-11T05:05:44.337Z,1.98
2017-12-11T05:08:11.840Z,1.98
2017-12-11T05:10:39.344Z,1.90
2017-12-11T05:13:06.833Z,1.94
2017-12-11T05:15:34.500Z,1.91
2017-12-11T05:18:02.020Z,1.91
2017-12-11T05:20:29.520Z,1.96
2017-12-11T05:22:57.036Z,1.89
2017-12-11T05:25:24.517Z,1.87
2017-12-11T05:27:52.174Z,1.83
2017-12-11T05:30:19.676Z,1.88
2017-12-11T05:32:47.168Z,1.88
2017-12-11T05:35:14.693Z,1.93
2017-12-11T05:37:42.176Z,1.87
2017-12-11T05:40:09.688Z,1.86
2017-12-11T05:42:37.194Z,1.76
2017-12-11T05:45:04.710Z,1.84
2017-12-11T05:47:32.189Z,1.81
2017-12-11T05:49:59.686Z,1.90
2017-12-11T05:52:27.208Z,1.76
2017-12-11T05:54:54.692Z,1.84
2017-12-11T05:57:22.259Z,1.76
2017-12-11T05:59:49.803Z,1.72
2017-12-11T06:02:17.321Z,1.70
2017-12-11T06:04:44.813Z,1.59
2017-12-11T06:07:12.340Z,1.62
2017-12-11T06:09:39.869Z,1.59
2017-12-11T06:12:07.376Z,1.58
2017-12-11T06:14:34.855Z,1.51
2017-12-11T06:17:02.415Z,1.55
2017-12-11T06:19:29.904Z,1.50
2017-12-11T06:21:57.392Z,1.50
2017-12-11T06:24:24.903Z,1.58
2017-12-11T06:26:52.401Z,1.52
2017-12-11T06:29:19.927Z,1.43
2017-12-11T06:31:47.452Z,1.49
2017-12-11T06:34:14.933Z,1.49
2017-12-11T06:36:42.413Z,1.53
2017-12-11T06:39:09.896Z,1.38
2017-12-11T06:41:37.714Z,1.42
2017-12-11T06:44:05.197Z,1.36
2017-12-11T06:46:32.704Z,1.39
2017-12-11T06:49:00.425Z,1.43
2017-12-11T06:51:27.939Z,1.44
2017-12-11T06:53:55.437Z,1.37
2017-12-11T06:56:22.936Z,1.43
2017-12-11T06:58:50.471Z,1.41
2017-12-11T07:01:17.981Z,1.48
2017-12-11T07:03:45.461Z,1.46
2017-12-11T07:06:12.965Z,1.46
2017-12-11T07:08:40.481Z,1.44
2017-12-11T07:11:08.155Z,1.43
2017-12-11T07:13:35.690Z,1.42
2017-12-11T07:16:03.184Z,1.45
2017-12-11T07:18:30.706Z,1.42
2017-12-11T07:20:58.231Z,1.43
2017-12-11T07:23:25.709Z,1.46
2017-12-11T07:28:35.047Z,1.46
2017-12-11T07:31:02.557Z,1.41
2017-12-11T07:33:30.068Z,1.39
2017-12-11T07:35:57.571Z,1.46
2017-12-11T07:38:25.090Z,1.51
2017-12-11T07:40:52.584Z,1.48
2017-12-11T07:43:20.110Z,1.50
2017-12-11T07:45:47.913Z,1.52
2017-12-11T07:48:15.419Z,1.50
2017-12-11T07:50:42.947Z,1.57
2017-12-11T07:53:10.419Z,1.45
2017-12-11T07:55:37.924Z,1.52
2017-12-11T07:58:05.416Z,1.46
2017-12-11T08:00:32.941Z,1.56
2017-12-11T08:03:00.444Z,1.59
2017-12-11T08:05:27.995Z,1.56
2017-12-11T08:07:55.621Z,1.53
2017-12-11T08:10:23.113Z,1.59
2017-12-11T08:12:50.613Z,1.57
2017-12-11T08:15:18.131Z,1.62
2017-12-11T08:17:46.651Z,1.61
2017-12-11T08:20:14.185Z,1.58
2017-12-11T08:22:41.674Z,1.50
2017-12-11T08:25:09.172Z,1.52
2017-12-11T08:27:36.656Z,1.53
2017-12-11T08:30:04.155Z,1.61
2017-12-11T08:32:31.663Z,1.62
2017-12-11T08:34:59.164Z,1.69
2017-12-11T08:37:26.693Z,1.66
2017-12-11T08:39:54.169Z,1.70
2017-12-11T08:42:21.663Z,1.70
2017-12-11T08:44:49.169Z,1.75
2017-12-11T08:47:16.683Z,1.72
2017-12-11T08:49:44.191Z,1.75
2017-12-11T08:52:11.681Z,1.71
2017-12-11T08:54:39.216Z,1.69
2017-12-11T08:57:06.731Z,1.71
2017-12-11T08:59:34.235Z,1.72
2017-12-11T09:02:01.709Z,1.72
2017-12-11T09:04:29.192Z,1.77
2017-12-11T09:06:56.695Z,1.83
2017-12-11T09:09:24.216Z,1.75
2017-12-11T09:11:51.727Z,1.79
2017-12-11T09:14:19.213Z,1.83
2017-12-11T09:16:46.723Z,1.88
2017-12-11T09:19:14.231Z,1.84
2017-12-11T09:21:41.735Z,1.82
2017-12-11T09:24:09.224Z,1.86
2017-12-11T09:26:36.705Z,1.89
2017-12-11T09:29:04.208Z,1.87
2017-12-11T09:31:31.703Z,1.89
2017-12-11T09:33:59.201Z,1.90
2017-12-11T09:36:26.688Z,1.90
2017-12-11T09:38:54.192Z,1.87
2017-12-11T09:41:21.683Z,1.88
2017-12-11T09:43:49.321Z,1.94
2017-12-11T09:46:16.769Z,1.93
2017-12-11T09:48:44.257Z,1.85
2017-12-11T09:51:11.749Z,1.75
2017-12-11T09:53:39.246Z,1.79
2017-12-11T09:56:06.748Z,1.82
2017-12-11T09:58:34.259Z,1.76
2017-12-11T10:01:01.764Z,1.82
2017-12-11T10:03:29.280Z,1.71
2017-12-11T10:05:56.769Z,1.79
2017-12-11T10:08:24.265Z,1.80
2017-12-11T10:10:51.777Z,1.77
2017-12-11T10:13:19.350Z,1.84
2017-12-11T10:15:46.867Z,1.86
2017-12-11T10:18:14.384Z,1.83
2017-12-11T10:20:41.891Z,1.91
2017-12-11T10:23:09.404Z,1.80
2017-12-11T10:25:36.898Z,1.76
2017-12-11T10:28:04.391Z,1.85
2017-12-11T10:30:31.893Z,1.84
2017-12-11T10:32:59.407Z,1.87
2017-12-11T10:35:26.924Z,1.90
2017-12-11T10:37:54.432Z,1.67
2017-12-11T10:40:23.192Z,1.79
2017-12-11T10:42:50.879Z,1.75
2017-12-11T10:45:18.532Z,1.83
2017-12-11T10:47:46.224Z,1.94
2017-12-11T10:50:13.744Z,1.92
2017-12-11T10:52:41.234Z,1.86
2017-12-11T10:55:08.775Z,1.89
2017-12-11T10:57:36.282Z,1.87
2017-12-11T11:00:03.789Z,1.89
2017-12-11T11:02:31.410Z,1.91
2017-12-11T11:04:58.895Z,1.80
2017-12-11T11:07:26.416Z,1.78
2017-12-11T11:09:53.900Z,1.80
2017-12-11T11:12:21.403Z,1.74
2017-12-11T11:14:49.231Z,1.73
2017-12-11T11:17:16.738Z,1.69
2017-12-11T11:19:44.252Z,1.62
2017-12-11T11:22:11.749Z,1.60
2017-12-11T11:24:39.273Z,1.48
2017-12-11T11:27:06.790Z,1.41
2017-12-11T11:29:34.378Z,1.40
2017-12-11T11:32:01.875Z,1.33
2017-12-11T11:34:29.415Z,1.32
2017-12-11T11:36:56.952Z,1.21
2017-12-11T11:39:24.463Z,1.17
2017-12-11T11:41:52.142Z,1.07
2017-12-11T11:44:19.631Z,1.04
2017-12-11T11:46:47.108Z,1.06
2017-12-11T11:49:14.632Z,1.05
2017-12-11T11:51:42.120Z,0.96
2017-12-11T11:54:10.620Z,0.98
2017-12-11T11:56:38.200Z,0.93
2017-12-11T11:59:05.686Z,0.89
2017-12-11T12:01:33.170Z,0.87
2017-12-11T12:04:00.696Z,0.94
2017-12-11T12:06:28.283Z,0.87
2017-12-11T12:08:55.778Z,0.87
2017-12-11T12:11:23.278Z,0.84
2017-12-11T12:13:50.921Z,0.81
2017-12-11T12:16:18.419Z,0.78
2017-12-11T12:18:45.951Z,0.82
2017-12-11T12:21:13.620Z,0.74
2017-12-11T12:23:41.363Z,0.79
2017-12-11T12:26:08.860Z,0.70
2017-12-11T12:28:36.373Z,0.79
2017-12-11T12:31:03.872Z,0.86
2017-12-11T12:33:31.428Z,0.83
2017-12-11T12:35:58.939Z,0.80
2017-12-11T12:38:26.434Z,0.75
2017-12-11T12:40:53.931Z,0.69
2017-12-11T12:43:21.471Z,0.70
2017-12-11T12:45:48.988Z,0.70
2017-12-11T12:48:16.490Z,0.66
2017-12-11T12:50:44.016Z,0.73
2017-12-11T12:53:12.482Z,0.66
2017-12-11T12:55:40.094Z,0.67
2017-12-11T12:58:07.609Z,0.64
2017-12-11T13:00:35.153Z,0.64
2017-12-11T13:03:02.651Z,0.63
2017-12-11T13:05:30.175Z,0.67
2017-12-11T13:07:57.674Z,0.66
2017-12-11T13:10:25.211Z,0.64
2017-12-11T13:12:53.042Z,0.66
2017-12-11T13:15:20.553Z,0.69
2017-12-11T13:17:48.076Z,0.71
2017-12-11T13:20:15.569Z,0.71
2017-12-11T13:22:43.115Z,0.74
2017-12-11T13:25:11.239Z,0.82
2017-12-11T13:27:38.729Z,0.78
2017-12-11T13:30:06.439Z,0.71
2017-12-11T13:32:33.936Z,0.71
2017-12-11T13:35:01.444Z,0.73
2017-12-11T13:37:28.955Z,0.74
2017-12-11T13:39:56.472Z,0.81
2017-12-11T13:42:23.978Z,0.76
2017-12-11T13:44:51.460Z,0.86
2017-12-11T13:47:19.273Z,0.92
2017-12-11T13:49:46.994Z,0.95
2017-12-11T13:52:14.564Z,0.95
2017-12-11T13:54:42.081Z,0.95
2017-12-11T13:57:09.584Z,0.99
2017-12-11T13:59:37.109Z,0.96
2017-12-11T14:02:04.601Z,0.97
2017-12-11T14:04:32.411Z,0.97
2017-12-11T14:06:59.912Z,1.01
2017-12-11T14:09:27.441Z,1.04
2017-12-11T14:11:54.980Z,1.07
2017-12-11T14:14:22.473Z,1.06
2017-12-11T14:16:50.005Z,1.10
2017-12-11T14:19:17.520Z,1.07
2017-12-11T14:21:45.035Z,1.13
2017-12-11T14:24:12.800Z,1.15
2017-12-11T14:26:40.335Z,1.19
2017-12-11T14:29:07.878Z,1.15
2017-12-11T14:31:35.365Z,1.13
2017-12-11T14:34:02.921Z,1.10
2017-12-11T14:36:31.477Z,1.14
2017-12-11T14:38:58.975Z,1.15
2017-12-11T14:41:26.468Z,1.15
2017-12-11T14:43:53.944Z,1.17
2017-12-11T14:46:21.441Z,1.19
2017-12-11T14:48:48.995Z,1.22
2017-12-11T14:51:16.510Z,1.27
2017-12-11T14:53:44.021Z,1.28
2017-12-11T14:56:11.525Z,1.25
2017-12-11T14:58:39.033Z,1.27
2017-12-11T15:01:06.530Z,1.30
2017-12-11T15:03:34.072Z,1.38
2017-12-11T15:06:01.589Z,1.39
2017-12-11T15:08:29.110Z,1.34
2017-12-11T15:10:56.629Z,1.36
2017-12-11T15:13:24.187Z,1.40
2017-12-11T15:15:51.728Z,1.40
2017-12-11T15:18:19.235Z,1.43
2017-12-11T15:20:46.764Z,1.40
2017-12-11T15:23:14.329Z,1.45
2017-12-11T15:25:41.859Z,1.44
2017-12-11T15:28:09.392Z,1.41
2017-12-11T15:30:36.913Z,1.43
2017-12-11T15:33:04.755Z,1.44
2017-12-11T15:35:32.259Z,1.41
2017-12-11T15:37:59.776Z,1.46
2017-12-11T15:40:27.305Z,1.43
2017-12-11T15:42:54.812Z,1.42
2017-12-11T15:45:22.323Z,1.42
2017-12-11T15:47:50.058Z,1.43
2017-12-11T15:50:17.592Z,1.43
2017-12-11T15:52:45.099Z,1.47
2017-12-11T15:55:12.624Z,1.52
2017-12-11T15:57:40.142Z,1.51
2017-12-11T16:00:07.657Z,1.51
2017-12-11T16:02:35.228Z,1.47
2017-12-11T16:05:02.741Z,1.48
2017-12-11T16:07:30.259Z,1.45
2017-12-11T16:09:57.761Z,1.44
2017-12-11T16:12:25.288Z,1.45
2017-12-11T16:14:53.023Z,1.43
2017-12-11T16:17:20.537Z,1.40
2017-12-11T16:19:48.036Z,1.39
2017-12-11T16:22:15.591Z,1.40
2017-12-11T16:24:43.089Z,1.38
2017-12-11T16:27:10.626Z,1.40
2017-12-11T16:29:38.135Z,1.40
2017-12-11T16:32:05.642Z,1.42
2017-12-11T16:34:33.168Z,1.41
2017-12-11T16:37:00.672Z,1.47
2017-12-11T16:39:28.189Z,1.49
2017-12-11T16:41:55.700Z,1.52
2017-12-11T16:44:23.233Z,1.58
2017-12-11T16:46:50.853Z,1.60
2017-12-11T16:49:18.355Z,1.62
2017-12-11T16:51:45.872Z,1.66
2017-12-11T16:54:13.389Z,1.73
2017-12-11T16:56:40.911Z,1.71
2017-12-11T16:59:08.416Z,1.80
2017-12-11T17:01:36.948Z,1.83
2017-12-11T17:04:04.491Z,1.88
2017-12-11T17:06:32.001Z,1.97
2017-12-11T17:08:59.505Z,1.97
2017-12-11T17:11:27.013Z,2.04
2017-12-11T17:13:54.521Z,1.96
2017-12-11T17:16:22.019Z,2.02
2017-12-11T17:18:49.523Z,2.07
2017-12-11T17:21:17.059Z,2.11
2017-12-11T17:23:44.566Z,2.07
2017-12-11T17:26:12.065Z,2.10
2017-12-11T17:28:39.561Z,2.08
2017-12-11T17:31:07.063Z,2.11
2017-12-11T17:33:34.926Z,2.13
2017-12-11T17:36:02.556Z,2.11
2017-12-11T17:38:30.071Z,2.11
2017-12-11T17:40:57.575Z,2.16
2017-12-11T17:43:25.088Z,2.20
2017-12-11T17:45:52.581Z,2.22
2017-12-11T17:48:20.110Z,2.19
2017-12-11T17:50:47.607Z,2.19
2017-12-11T17:53:15.104Z,2.22
2017-12-11T17:55:42.597Z,2.26
2017-12-11T17:58:10.109Z,2.35
2017-12-11T18:00:37.613Z,2.33
2017-12-11T18:03:05.147Z,2.31
2017-12-11T18:05:32.662Z,2.38
2017-12-11T18:08:00.154Z,2.38
2017-12-11T18:10:27.657Z,2.39
2017-12-11T18:12:55.189Z,2.47
2017-12-11T18:15:22.736Z,2.45
2017-12-11T18:17:50.276Z,2.40
2017-12-11T18:20:17.857Z,2.42
2017-12-11T18:22:45.357Z,2.47
2017-12-11T18:25:12.857Z,2.52
2017-12-11T18:27:40.352Z,2.56
2017-12-11T18:30:07.879Z,2.59
2017-12-11T18:32:36.019Z,2.65
2017-12-11T18:35:03.542Z,2.67
2017-12-11T18:37:31.053Z,2.71
2017-12-11T18:39:58.614Z,2.70
2017-12-11T18:42:26.110Z,2.67
2017-12-11T18:44:53.605Z,2.63
2017-12-11T18:47:21.123Z,2.57
2017-12-11T18:49:48.616Z,2.55
2017-12-11T18:52:16.119Z,2.59
2017-12-11T18:54:43.601Z,2.58
2017-12-11T18:57:11.123Z,2.60
2017-12-11T18:59:38.677Z,2.66
2017-12-11T19:02:06.204Z,2.72
2017-12-11T19:04:33.692Z,2.80
2017-12-11T19:07:01.183Z,2.80
2017-12-11T19:09:28.701Z,2.87
2017-12-11T19:11:56.348Z,2.90
2017-12-11T19:14:23.842Z,2.89
2017-12-11T19:16:51.332Z,2.92
2017-12-11T19:19:18.852Z,2.93
2017-12-11T19:21:46.359Z,2.96
2017-12-11T19:24:13.880Z,2.98
2017-12-11T19:26:41.384Z,3.01
2017-12-11T19:29:08.905Z,3.07
2017-12-11T19:31:36.564Z,3.12
2017-12-11T19:34:04.075Z,3.15
2017-12-11T19:36:31.592Z,3.19
2017-12-11T19:38:59.131Z,3.26
2017-12-11T19:41:26.626Z,3.28
2017-12-11T19:43:54.131Z,3.32
2017-12-11T19:46:21.621Z,3.38
2017-12-11T19:48:49.120Z,3.43
2017-12-11T19:51:16.646Z,3.46
2017-12-11T19:53:44.156Z,3.47
2017-12-11T19:56:11.648Z,3.55
2017-12-11T19:58:39.204Z,3.57
2017-12-11T20:01:06.735Z,3.61
2017-12-11T20:03:34.239Z,3.63
2017-12-11T20:06:01.745Z,3.63
2017-12-11T20:08:29.232Z,3.75
2017-12-11T20:10:56.755Z,3.80
2017-12-11T20:13:24.277Z,3.81
2017-12-11T20:15:51.792Z,3.91
2017-12-11T20:18:19.381Z,3.94
2017-12-11T20:20:46.928Z,3.97
2017-12-11T20:23:14.573Z,4.10
2017-12-11T20:25:42.243Z,4.15
2017-12-11T20:28:09.740Z,4.14
2017-12-11T20:30:37.248Z,4.27
2017-12-11T20:33:04.732Z,4.30
2017-12-11T20:35:32.272Z,4.38
2017-12-11T20:37:59.805Z,4.49
2017-12-11T20:40:27.305Z,4.49
2017-12-11T20:42:54.905Z,4.58
2017-12-11T20:45:22.427Z,4.49
2017-12-11T20:47:49.950Z,4.53
2017-12-11T20:50:17.451Z,4.64
2017-12-11T20:52:45.072Z,4.70
2017-12-11T20:55:12.574Z,4.74
2017-12-11T20:57:40.109Z,4.90
2017-12-11T21:00:07.623Z,4.84
2017-12-11T21:02:35.261Z,4.86
2017-12-11T21:05:02.846Z,4.87
2017-12-11T21:07:30.363Z,4.99
2017-12-11T21:09:57.896Z,5.13
2017-12-11T21:12:25.438Z,5.17
2017-12-11T21:14:52.962Z,5.15
2017-12-11T21:17:20.502Z,5.12
2017-12-11T21:19:48.091Z,5.14
2017-12-11T21:22:15.613Z,5.25
2017-12-11T21:24:44.076Z,5.25
2017-12-11T21:27:11.616Z,5.32
2017-12-11T21:29:39.225Z,5.32
2017-12-11T21:32:06.905Z,5.32
2017-12-11T21:34:34.403Z,5.43
2017-12-11T21:37:01.928Z,5.39
2017-12-11T21:39:29.446Z,5.39
2017-12-11T21:41:56.966Z,5.40
2017-12-11T21:44:26.381Z,5.44
2017-12-11T21:46:53.896Z,5.54
2017-12-11T21:49:21.411Z,5.51
2017-12-11T21:51:48.925Z,5.51
2017-12-11T21:54:16.428Z,5.50
2017-12-11T21:56:43.912Z,5.62
2017-12-11T21:59:11.431Z,5.67
2017-12-11T22:01:38.980Z,5.76
2017-12-11T22:04:07.294Z,5.83
2017-12-11T22:06:34.784Z,5.87
2017-12-11T22:09:02.287Z,6.04
2017-12-11T22:11:30.278Z,6.07
2017-12-11T22:13:58.333Z,6.17
2017-12-11T22:16:25.859Z,6.30
2017-12-11T22:18:53.364Z,6.31
2017-12-11T22:21:20.890Z,6.45
2017-12-11T22:23:48.672Z,6.64
2017-12-11T22:26:16.237Z,6.75
2017-12-11T22:28:43.740Z,6.82
2017-12-11T22:31:11.239Z,6.75
2017-12-11T22:33:38.735Z,6.83
2017-12-11T22:36:06.314Z,6.93
2017-12-11T22:38:33.802Z,6.90
2017-12-11T22:41:01.322Z,7.13
2017-12-11T22:43:28.878Z,7.17
2017-12-11T22:45:56.438Z,6.99
2017-12-11T22:48:23.954Z,7.05
2017-12-11T22:50:51.455Z,7.17
2017-12-11T22:53:19.035Z,7.05
2017-12-11T22:55:46.557Z,7.17
2017-12-11T22:58:14.038Z,7.19
2017-12-11T23:00:41.599Z,7.17
2017-12-11T23:03:09.109Z,7.23
2017-12-11T23:05:36.592Z,7.32
2017-12-11T23:08:04.071Z,7.43
2017-12-11T23:10:31.558Z,7.38
2017-12-11T23:12:59.150Z,7.46
2017-12-11T23:15:26.710Z,7.56
2017-12-11T23:17:54.203Z,7.59
2017-12-11T23:20:21.697Z,7.71
2017-12-11T23:22:49.222Z,7.72
2017-12-11T23:25:16.705Z,7.71
2017-12-11T23:27:44.189Z,7.70
2017-12-11T23:30:12.137Z,7.69
2017-12-11T23:32:39.664Z,7.67
2017-12-11T23:35:07.200Z,7.68
2017-12-11T23:37:34.781Z,7.86
2017-12-11T23:40:02.289Z,7.83
2017-12-11T23:42:29.809Z,7.71
2017-12-11T23:44:57.423Z,7.80
2017-12-11T23:47:24.941Z,7.87
2017-12-11T23:49:52.574Z,7.76
2017-12-11T23:52:20.180Z,7.77
2017-12-11T23:54:47.727Z,7.83
2017-12-11T23:57:15.205Z,7.86
2017-12-11T23:59:42.725Z,7.77
